createdAt,value
2022-08-07T00:00:28.139Z,21.45
2022-08-07T00:03:09.000Z,21.47
2022-08-07T00:05:37.766Z,21.48
2022-08-07T00:08:07.847Z,21.48
2022-08-07T00:10:47.868Z,21.46
2022-08-07T00:13:24.084Z,21.46
2022-08-07T00:15:55.652Z,21.47
2022-08-07T00:18:27.016Z,21.48
2022-08-07T00:21:08.259Z,21.50
2022-08-07T00:23:52.216Z,21.59
2022-08-07T00:26:58.927Z,21.66
2022-08-07T00:29:08.900Z,21.65
2022-08-07T00:31:38.427Z,21.63
2022-08-07T00:34:10.029Z,21.61
2022-08-07T00:36:43.359Z,21.59
2022-08-07T00:39:16.849Z,21.56
2022-08-07T00:42:01.712Z,21.53
2022-08-07T00:44:35.326Z,21.50
2022-08-07T00:47:16.034Z,21.48
2022-08-07T00:50:21.368Z,21.45
2022-08-07T00:52:47.236Z,21.40
2022-08-07T00:55:17.325Z,21.33
2022-08-07T00:57:55.074Z,21.20
2022-08-07T01:00:24.743Z,21.07
2022-08-07T01:02:53.035Z,20.95
2022-08-07T01:05:24.649Z,20.83
2022-08-07T01:07:53.094Z,20.81
2022-08-07T01:10:23.838Z,20.83
2022-08-07T01:12:54.993Z,20.82
2022-08-07T01:15:35.692Z,20.80
2022-08-07T01:18:16.834Z,20.77
2022-08-07T01:20:57.242Z,20.76
2022-08-07T01:23:36.412Z,20.79
2022-08-07T01:26:51.967Z,20.81
2022-08-07T01:29:24.026Z,20.81
2022-08-07T01:31:59.400Z,20.79
2022-08-07T01:34:34.470Z,20.74
2022-08-07T01:37:22.868Z,20.67
2022-08-07T01:39:54.193Z,20.53
2022-08-07T01:42:39.639Z,20.46
2022-08-07T01:45:23.036Z,20.48
2022-08-07T01:48:20.647Z,20.48
2022-08-07T01:51:24.295Z,20.54
2022-08-07T01:54:11.583Z,20.56
2022-08-07T01:56:53.403Z,20.55
2022-08-07T02:00:13.415Z,20.55
2022-08-07T02:03:18.961Z,20.56
2022-08-07T02:05:59.898Z,20.54
2022-08-07T02:08:38.182Z,20.56
2022-08-07T02:11:09.095Z,20.53
2022-08-07T02:13:58.193Z,20.45
2022-08-07T02:16:33.239Z,20.36
2022-08-07T02:20:07.334Z,20.33
2022-08-07T02:21:58.535Z,20.26
2022-08-07T02:24:30.207Z,20.14
2022-08-07T02:27:03.436Z,20.10
2022-08-07T02:29:36.870Z,20.00
2022-08-07T02:32:17.509Z,19.95
2022-08-07T02:34:53.403Z,19.89
2022-08-07T02:37:25.184Z,19.84
2022-08-07T02:40:02.119Z,19.80
2022-08-07T02:42:43.046Z,19.77
2022-08-07T02:45:58.635Z,19.78
2022-08-07T02:48:03.846Z,19.78
2022-08-07T02:50:44.137Z,19.79
2022-08-07T02:53:18.228Z,19.82
2022-08-07T02:56:04.025Z,19.85
2022-08-07T02:58:35.412Z,19.87
2022-08-07T03:01:06.558Z,19.85
2022-08-07T03:03:50.431Z,19.83
2022-08-07T03:06:33.056Z,19.83
2022-08-07T03:09:05.693Z,19.85
2022-08-07T03:11:38.371Z,19.86
2022-08-07T03:14:08.965Z,19.84
2022-08-07T03:16:38.578Z,19.80
2022-08-07T03:19:08.357Z,19.82
2022-08-07T03:21:37.495Z,19.84
2022-08-07T03:24:18.132Z,19.89
2022-08-07T03:26:58.444Z,19.94
2022-08-07T03:29:46.094Z,19.95
2022-08-07T03:32:25.911Z,19.97
2022-08-07T03:35:18.112Z,20.00
2022-08-07T03:38:04.674Z,20.04
2022-08-07T03:40:36.198Z,20.08
2022-08-07T03:43:13.565Z,20.11
2022-08-07T03:45:48.723Z,20.13
2022-08-07T03:48:21.264Z,20.15
2022-08-07T03:50:56.024Z,20.17
2022-08-07T03:53:50.130Z,20.21
2022-08-07T03:56:33.338Z,20.29
2022-08-07T03:59:12.923Z,20.33
2022-08-07T04:01:46.065Z,20.35
2022-08-07T04:04:17.856Z,20.37
2022-08-07T04:06:51.016Z,20.37
2022-08-07T04:09:23.472Z,20.37
2022-08-07T04:12:23.849Z,20.40
2022-08-07T04:14:46.161Z,20.45
2022-08-07T04:17:20.951Z,20.57
2022-08-07T04:19:54.413Z,20.65
2022-08-07T04:22:29.162Z,20.72
2022-08-07T04:25:02.120Z,20.78
2022-08-07T04:27:35.851Z,20.84
2022-08-07T04:30:21.377Z,20.90
2022-08-07T04:33:14.042Z,20.98
2022-08-07T04:35:50.131Z,21.04
2022-08-07T04:38:21.103Z,21.08
2022-08-07T04:40:52.530Z,21.14
2022-08-07T04:44:10.373Z,21.19
2022-08-07T04:46:51.335Z,21.24
2022-08-07T04:49:40.106Z,21.31
2022-08-07T04:52:51.343Z,21.38
2022-08-07T04:58:11.156Z,21.45
2022-08-07T05:00:08.399Z,21.56
2022-08-07T05:02:16.656Z,21.63
2022-08-07T05:05:53.523Z,21.70
2022-08-07T05:08:59.074Z,21.78
2022-08-07T05:11:24.326Z,21.86
2022-08-07T05:14:51.873Z,21.94
2022-08-07T05:16:57.769Z,22.02
2022-08-07T05:19:45.127Z,22.08
2022-08-07T05:22:26.677Z,22.19
2022-08-07T05:24:59.753Z,22.30
2022-08-07T05:28:03.068Z,22.38
2022-08-07T05:30:30.148Z,22.51
2022-08-07T05:33:04.670Z,22.63
2022-08-07T05:35:42.141Z,22.74
2022-08-07T05:38:58.288Z,22.85
2022-08-07T05:41:12.155Z,22.95
2022-08-07T05:44:12.100Z,22.98
2022-08-07T05:46:40.939Z,23.14
2022-08-07T05:49:13.122Z,23.24
2022-08-07T05:51:47.194Z,23.31
2022-08-07T05:54:30.971Z,23.39
2022-08-07T05:57:11.427Z,23.48
2022-08-07T05:59:56.163Z,23.57
2022-08-07T06:02:41.876Z,23.65
2022-08-07T06:05:16.149Z,23.77
2022-08-07T06:08:09.094Z,23.86
2022-08-07T06:10:39.087Z,23.93
2022-08-07T06:13:13.671Z,23.96
2022-08-07T06:15:45.894Z,24.06
2022-08-07T06:18:22.695Z,24.14
2022-08-07T06:22:15.984Z,24.23
2022-08-07T06:24:38.439Z,24.34
2022-08-07T06:26:34.115Z,24.47
2022-08-07T06:29:06.450Z,24.59
2022-08-07T06:31:46.596Z,24.69
2022-08-07T06:34:20.465Z,24.84
2022-08-07T06:36:51.910Z,24.93
2022-08-07T06:40:16.344Z,25.03
2022-08-07T06:42:33.147Z,25.13
2022-08-07T06:45:18.342Z,25.24
2022-08-07T06:47:58.477Z,25.26
2022-08-07T06:50:33.678Z,25.28
2022-08-07T06:54:11.823Z,25.32
2022-08-07T06:56:01.164Z,25.39
2022-08-07T06:58:32.235Z,25.47
2022-08-07T07:01:12.424Z,25.56
2022-08-07T07:03:49.018Z,25.54
2022-08-07T07:06:26.203Z,25.77
2022-08-07T07:08:56.763Z,25.87
2022-08-07T07:12:08.282Z,25.95
2022-08-07T07:14:16.576Z,26.05
2022-08-07T07:16:50.687Z,26.14
2022-08-07T07:19:57.087Z,26.20
2022-08-07T07:22:39.810Z,26.31
2022-08-07T07:25:14.159Z,26.40
2022-08-07T07:28:02.957Z,26.53
2022-08-07T07:30:39.669Z,26.60
2022-08-07T07:33:55.016Z,26.68
2022-08-07T07:36:32.351Z,26.89
2022-08-07T07:39:04.008Z,26.96
2022-08-07T07:41:50.868Z,27.07
2022-08-07T07:44:27.706Z,27.14
2022-08-07T07:47:12.080Z,27.21
2022-08-07T07:50:36.370Z,27.26
2022-08-07T07:52:41.256Z,27.41
2022-08-07T07:55:10.976Z,27.55
2022-08-07T07:57:50.554Z,27.63
2022-08-07T08:00:29.660Z,27.70
2022-08-07T08:03:08.021Z,27.73
2022-08-07T08:05:42.851Z,27.80
2022-08-07T08:08:34.258Z,28.00
2022-08-07T08:11:08.159Z,28.17
2022-08-07T08:13:52.963Z,28.25
2022-08-07T08:16:29.788Z,28.38
2022-08-07T08:19:18.200Z,28.54
2022-08-07T08:22:11.138Z,28.79
2022-08-07T08:25:09.510Z,29.10
2022-08-07T08:28:03.722Z,29.42
2022-08-07T08:30:37.481Z,29.76
2022-08-07T08:33:17.107Z,30.16
2022-08-07T08:35:51.040Z,30.35
2022-08-07T08:38:29.260Z,30.60
2022-08-07T08:41:05.570Z,30.83
2022-08-07T08:43:55.770Z,31.03
2022-08-07T08:46:41.266Z,31.13
2022-08-07T08:49:19.287Z,31.33
2022-08-07T08:52:16.567Z,31.63
2022-08-07T08:55:04.750Z,31.79
2022-08-07T08:57:47.183Z,31.81
2022-08-07T09:00:17.092Z,32.14
2022-08-07T09:03:07.813Z,32.21
2022-08-07T09:05:58.632Z,32.50
2022-08-07T09:08:46.834Z,32.65
2022-08-07T09:11:54.532Z,33.05
2022-08-07T09:14:36.554Z,33.30
2022-08-07T09:17:22.922Z,33.54
2022-08-07T09:20:01.858Z,33.78
2022-08-07T09:24:30.858Z,33.96
2022-08-07T09:26:01.181Z,34.23
2022-08-07T09:30:05.931Z,34.56
2022-08-07T09:31:38.526Z,34.72
2022-08-07T09:34:18.310Z,34.72
2022-08-07T09:37:03.489Z,34.57
2022-08-07T09:39:55.249Z,34.86
2022-08-07T09:42:58.170Z,35.14
2022-08-07T09:47:23.497Z,35.31
2022-08-07T09:48:55.800Z,35.49
2022-08-07T09:52:10.341Z,35.31
2022-08-07T09:54:53.774Z,35.34
2022-08-07T09:57:55.922Z,35.46
2022-08-07T10:00:32.797Z,35.70
2022-08-07T10:04:06.762Z,35.74
2022-08-07T10:06:27.643Z,35.96
2022-08-07T10:09:15.336Z,35.87
2022-08-07T10:12:21.824Z,35.93
2022-08-07T10:15:15.481Z,36.08
2022-08-07T10:18:17.618Z,35.91
2022-08-07T10:21:14.889Z,35.17
2022-08-07T10:24:18.484Z,34.28
2022-08-07T10:27:10.326Z,33.77
2022-08-07T10:30:12.388Z,33.36
2022-08-07T10:33:14.903Z,33.30
2022-08-07T10:36:10.820Z,33.26
2022-08-07T10:39:05.787Z,33.33
2022-08-07T10:42:09.811Z,33.38
2022-08-07T10:45:14.842Z,33.31
2022-08-07T10:48:07.342Z,33.15
2022-08-07T10:50:44.862Z,33.07
2022-08-07T10:53:44.267Z,33.09
2022-08-07T10:56:37.122Z,32.96
2022-08-07T10:59:13.563Z,32.77
2022-08-07T11:02:12.269Z,32.66
2022-08-07T11:05:50.423Z,32.92
2022-08-07T11:08:41.462Z,33.11
2022-08-07T11:11:15.923Z,33.43
2022-08-07T11:14:57.093Z,33.53
2022-08-07T11:17:08.881Z,33.56
2022-08-07T11:19:52.264Z,33.51
2022-08-07T11:22:50.329Z,33.49
2022-08-07T11:25:26.399Z,33.63
2022-08-07T11:28:19.188Z,33.59
2022-08-07T11:31:24.739Z,33.60
2022-08-07T11:34:04.814Z,33.26
2022-08-07T11:37:00.417Z,33.16
2022-08-07T11:39:39.763Z,32.99
2022-08-07T11:42:48.630Z,32.85
2022-08-07T11:45:53.069Z,32.88
2022-08-07T11:49:50.267Z,32.96
2022-08-07T11:52:28.966Z,33.05
2022-08-07T11:56:25.980Z,32.92
2022-08-07T11:58:42.997Z,33.30
2022-08-07T12:01:25.191Z,33.33
2022-08-07T12:04:07.590Z,33.58
2022-08-07T12:07:09.001Z,33.05
2022-08-07T12:10:26.922Z,32.37
2022-08-07T12:13:11.332Z,32.45
2022-08-07T12:16:06.600Z,32.48
2022-08-07T12:19:08.153Z,32.16
2022-08-07T12:22:39.233Z,31.50
2022-08-07T12:26:05.612Z,30.51
2022-08-07T12:29:15.827Z,29.54
2022-08-07T12:32:04.076Z,29.33
2022-08-07T12:34:37.398Z,29.88
2022-08-07T12:37:23.188Z,30.44
2022-08-07T12:40:00.549Z,30.90
2022-08-07T12:42:32.323Z,31.20
2022-08-07T12:45:11.929Z,31.59
2022-08-07T12:48:03.249Z,31.63
2022-08-07T12:51:17.440Z,31.71
2022-08-07T12:54:37.839Z,31.92
2022-08-07T12:56:58.980Z,31.95
2022-08-07T12:59:53.796Z,31.97
2022-08-07T13:02:37.733Z,31.71
2022-08-07T13:06:03.857Z,31.68
2022-08-07T13:08:38.808Z,31.77
2022-08-07T13:11:19.439Z,31.74
2022-08-07T13:14:03.210Z,31.65
2022-08-07T13:17:03.323Z,31.38
2022-08-07T13:20:00.905Z,31.44
2022-08-07T13:22:38.128Z,31.33
2022-08-07T13:25:15.394Z,31.28
2022-08-07T13:28:13.052Z,31.29
2022-08-07T13:30:53.184Z,31.30
2022-08-07T13:34:31.307Z,31.42
2022-08-07T13:36:31.619Z,31.14
2022-08-07T13:40:33.210Z,30.75
2022-08-07T13:42:25.848Z,30.79
2022-08-07T13:45:20.762Z,30.93
2022-08-07T13:48:05.906Z,31.00
2022-08-07T13:50:45.087Z,30.92
2022-08-07T13:53:35.871Z,31.00
2022-08-07T13:56:35.720Z,31.03
2022-08-07T13:59:27.174Z,30.97
2022-08-07T14:02:12.906Z,30.84
2022-08-07T14:04:47.423Z,30.82
2022-08-07T14:07:23.006Z,30.89
2022-08-07T14:10:02.035Z,30.89
2022-08-07T14:12:57.786Z,30.75
2022-08-07T14:15:58.626Z,30.69
2022-08-07T14:18:44.259Z,30.66
2022-08-07T14:22:02.372Z,30.53
2022-08-07T14:24:34.108Z,30.49
2022-08-07T14:28:09.167Z,30.40
2022-08-07T14:30:07.878Z,30.39
2022-08-07T14:32:48.109Z,30.20
2022-08-07T14:35:44.538Z,30.10
2022-08-07T14:38:30.239Z,29.97
2022-08-07T14:41:05.236Z,29.97
2022-08-07T14:43:57.949Z,29.99
2022-08-07T14:46:30.669Z,29.89
2022-08-07T14:49:17.241Z,29.70
2022-08-07T14:52:04.865Z,29.75
2022-08-07T14:54:43.219Z,29.77
2022-08-07T14:57:18.739Z,29.76
2022-08-07T15:00:04.649Z,29.70
2022-08-07T15:02:39.203Z,29.56
2022-08-07T15:05:20.626Z,29.38
2022-08-07T15:07:53.381Z,29.18
2022-08-07T15:10:26.039Z,29.05
2022-08-07T15:13:05.704Z,29.01
2022-08-07T15:15:42.296Z,28.99
2022-08-07T15:18:33.618Z,28.93
2022-08-07T15:25:13.347Z,28.77
2022-08-07T15:27:04.039Z,28.48
2022-08-07T15:30:08.801Z,28.39
2022-08-07T15:32:39.538Z,28.26
2022-08-07T15:36:00.885Z,28.16
2022-08-07T15:41:24.033Z,28.02
2022-08-07T15:44:07.119Z,27.86
2022-08-07T15:46:51.702Z,27.69
2022-08-07T15:52:29.681Z,27.54
2022-08-07T15:55:09.088Z,27.45
2022-08-07T15:57:49.038Z,27.24
2022-08-07T16:00:31.296Z,27.07
2022-08-07T16:03:22.018Z,26.88
2022-08-07T16:06:01.309Z,26.66
2022-08-07T16:08:38.089Z,26.52
2022-08-07T16:11:42.251Z,26.35
2022-08-07T16:14:19.418Z,26.23
2022-08-07T16:17:14.852Z,26.06
2022-08-07T16:19:59.438Z,25.83
2022-08-07T16:22:47.910Z,25.67
2022-08-07T16:25:52.586Z,25.46
2022-08-07T16:30:06.976Z,25.25
2022-08-07T16:32:00.635Z,25.12
2022-08-07T16:34:55.383Z,24.98
2022-08-07T16:38:05.759Z,24.81
2022-08-07T16:41:02.317Z,24.61
2022-08-07T16:44:03.727Z,24.40
2022-08-07T16:47:07.804Z,24.23
2022-08-07T16:50:28.197Z,24.06
2022-08-07T16:54:01.174Z,23.93
2022-08-07T16:56:39.398Z,23.81
2022-08-07T16:59:18.599Z,23.63
2022-08-07T17:02:52.517Z,23.51
2022-08-07T17:06:28.309Z,23.31
2022-08-07T17:09:09.914Z,23.15
2022-08-07T17:12:04.434Z,22.99
2022-08-07T17:14:55.680Z,22.86
2022-08-07T17:17:27.133Z,22.67
2022-08-07T17:20:41.737Z,22.50
2022-08-07T17:23:19.444Z,22.39
2022-08-07T17:26:22.874Z,22.28
2022-08-07T17:28:52.612Z,22.16
2022-08-07T17:32:02.469Z,22.08
2022-08-07T17:35:40.033Z,21.96
2022-08-07T17:38:09.397Z,21.78
2022-08-07T17:40:58.760Z,21.66
2022-08-07T17:44:03.103Z,21.54
2022-08-07T17:46:56.136Z,21.46
2022-08-07T17:49:55.069Z,21.37
2022-08-07T17:52:41.406Z,21.26
2022-08-07T17:55:16.608Z,21.13
2022-08-07T17:58:09.285Z,20.99
2022-08-07T18:00:49.226Z,20.89
2022-08-07T18:04:07.299Z,20.76
2022-08-07T18:06:43.261Z,20.65
2022-08-07T18:10:06.725Z,20.58
2022-08-07T18:12:30.464Z,20.49
2022-08-07T18:15:32.746Z,20.43
2022-08-07T18:18:39.794Z,20.33
2022-08-07T18:21:53.575Z,20.25
2022-08-07T18:24:36.188Z,20.19
2022-08-07T18:28:35.597Z,20.13
2022-08-07T18:31:40.385Z,20.03
2022-08-07T18:34:53.250Z,19.98
2022-08-07T18:38:58.399Z,19.93
2022-08-07T18:41:45.435Z,19.85
2022-08-07T18:44:27.110Z,19.83
2022-08-07T18:47:02.022Z,19.79
2022-08-07T18:50:32.866Z,19.73
2022-08-07T18:53:04.615Z,19.70
2022-08-07T18:55:42.487Z,19.67
2022-08-07T18:58:33.024Z,19.63
2022-08-07T19:02:32.485Z,19.58
2022-08-07T19:05:10.690Z,19.46
2022-08-07T19:07:57.472Z,19.47
2022-08-07T19:10:51.585Z,19.44
2022-08-07T19:13:25.484Z,19.44
2022-08-07T19:17:04.223Z,19.43
2022-08-07T19:19:14.563Z,19.43
2022-08-07T19:22:11.359Z,19.44
2022-08-07T19:24:49.184Z,19.43
2022-08-07T19:28:57.639Z,19.42
2022-08-07T19:31:06.122Z,19.41
2022-08-07T19:33:33.373Z,19.38
2022-08-07T19:36:08.932Z,19.37
2022-08-07T19:38:53.426Z,19.36
2022-08-07T19:41:39.114Z,19.32
2022-08-07T19:44:21.841Z,19.31
2022-08-07T19:46:58.010Z,19.27
2022-08-07T19:49:57.418Z,19.29
2022-08-07T19:52:22.754Z,19.31
2022-08-07T19:54:56.645Z,19.30
2022-08-07T19:58:01.162Z,19.29
2022-08-07T20:00:29.127Z,19.29
2022-08-07T20:03:33.503Z,19.09
2022-08-07T20:06:00.829Z,19.25
2022-08-07T20:08:34.704Z,19.23
2022-08-07T20:12:01.028Z,19.24
2022-08-07T20:14:23.233Z,19.24
2022-08-07T20:17:06.591Z,19.25
2022-08-07T20:19:48.234Z,19.28
2022-08-07T20:22:34.434Z,19.30
2022-08-07T20:25:12.654Z,19.31
2022-08-07T20:28:11.315Z,19.32
2022-08-07T20:30:47.506Z,19.29
2022-08-07T20:33:37.781Z,19.26
2022-08-07T20:36:09.979Z,19.23
2022-08-07T20:38:53.678Z,19.13
2022-08-07T20:41:34.120Z,19.20
2022-08-07T20:44:27.696Z,19.17
2022-08-07T20:47:55.999Z,19.13
2022-08-07T20:50:20.929Z,19.11
2022-08-07T20:52:50.762Z,19.10
2022-08-07T20:55:24.003Z,19.07
2022-08-07T20:58:12.018Z,19.04
2022-08-07T21:00:56.320Z,18.98
2022-08-07T21:03:28.096Z,18.95
2022-08-07T21:06:22.342Z,18.92
2022-08-07T21:09:03.054Z,18.92
2022-08-07T21:11:50.295Z,18.93
2022-08-07T21:14:34.115Z,18.91
2022-08-07T21:18:02.637Z,18.92
2022-08-07T21:20:05.669Z,18.90
2022-08-07T21:22:53.497Z,18.89
2022-08-07T21:25:59.285Z,18.89
2022-08-07T21:28:48.516Z,18.85
2022-08-07T21:31:49.764Z,18.85
2022-08-07T21:34:26.812Z,18.84
2022-08-07T21:37:57.540Z,18.81
2022-08-07T21:40:36.110Z,18.83
2022-08-07T21:43:13.840Z,18.83
2022-08-07T21:46:09.179Z,18.83
2022-08-07T21:49:21.081Z,18.81
2022-08-07T21:52:33.193Z,18.79
2022-08-07T21:56:00.092Z,18.76
2022-08-07T21:58:47.165Z,18.77
2022-08-07T22:02:11.051Z,18.78
2022-08-07T22:04:53.479Z,18.77
2022-08-07T22:07:31.892Z,18.72
2022-08-07T22:10:21.204Z,18.67
2022-08-07T22:12:55.931Z,18.63
2022-08-07T22:16:38.583Z,18.60
2022-08-07T22:19:09.501Z,18.59
2022-08-07T22:22:01.916Z,18.59
2022-08-07T22:25:15.939Z,18.61
2022-08-07T22:28:30.867Z,18.62
2022-08-07T22:32:00.443Z,18.61
2022-08-07T22:34:49.509Z,18.63
2022-08-07T22:38:06.461Z,18.62
2022-08-07T22:41:20.002Z,18.60
2022-08-07T22:43:56.455Z,18.59
2022-08-07T22:47:06.108Z,18.58
2022-08-07T22:50:13.511Z,18.59
2022-08-07T22:54:07.736Z,18.57
2022-08-07T22:56:34.022Z,18.56
2022-08-07T22:59:43.673Z,18.56
2022-08-07T23:02:46.966Z,18.56
2022-08-07T23:06:14.842Z,18.58
2022-08-07T23:10:03.811Z,18.59
2022-08-07T23:12:34.516Z,18.57
2022-08-07T23:16:05.434Z,18.55
2022-08-07T23:22:40.380Z,18.58
2022-08-07T23:25:09.547Z,18.56
2022-08-07T23:28:22.718Z,18.55
2022-08-07T23:32:49.148Z,18.54
2022-08-07T23:34:37.978Z,18.56
2022-08-07T23:37:29.661Z,18.56
2022-08-07T23:40:07.518Z,18.56
2022-08-07T23:43:01.248Z,18.54
2022-08-07T23:46:02.872Z,18.52
2022-08-07T23:49:05.426Z,18.51
2022-08-07T23:53:06.104Z,18.51
2022-08-07T23:54:51.913Z,18.50
2022-08-07T23:57:30.666Z,18.50
